Rouyn Noranda Airport
CYUY : now visible

Airfield :











YOU CAN JOIN US ON...

 
LOGIN :

Register | Disclaimer

   EN    FR    IT 

 









Legend :    VFR   Marginal VFR   IFR   Intensive IFR   Very Intensive IFR
Visi :
Ceiling :
>= 8 km
>= 3000ft
5 to 8 km
1000 to 3000 ft
1500m to 5 km
500 to 1000 ft
800 to 1500m
200 to 500 ft
< 800m
< 200 ft
Symbols :   Thunderstorms  Fog  Heavy snow  Heavy precipitations  Wind > 20 kt







- Airport Elevation : 988 ft
- IATA code : YUY


CYUY - Rouyn Noranda

CURRENT METAR :
  • 211500Z 24004KT 15SM OVC072 05/M01 A2994 RMK AC8 SLP153

EXPIRED METARs :
  • 211400Z 23002KT 15SM BKN075 05/M01 A2991 RMK AC7 SLP143
  • 211300Z 24002KT 15SM FEW085 SCT120 BKN240 02/M01 A2988 RMK AC1AC3CI1 SLP132

TAF TAF CYUY
Valid from the 21 at 12:00 until the 22 at 00:00 UTC


211140Z 2112/2124 VRB03KT P6SM BKN120
FM211800 33010KT P6SM SCT040 RMK NXT FCST BY 211800Z
CZUL FIR / North America



MET'MAP, your aeronautical weather chart ! - Copyright ORBIFLY December 2007 - Disclaimer

ORBIFLY MET'MAP TEAM :

Programming & Development : Alexandra Zaïnal
Concept & Development : Baudouin d'Aumeries
Co-Development & Prog : Marc-Olivier Méhu
Technical & hardware support : Manuel Goepfert

Contact : metmap@orbifly.com




SOURCES & CREDITS :

   NOAA       Earth
Advisory